createdAt,value
2022-11-27T00:04:52.798Z,43.53
2022-11-27T00:09:55.682Z,42.65
2022-11-27T00:14:59.937Z,43.10
2022-11-27T00:20:02.845Z,43.45
2022-11-27T00:25:06.446Z,40.58
2022-11-27T00:30:11.855Z,39.90
2022-11-27T00:35:15.278Z,41.10
2022-11-27T00:40:18.366Z,39.17
2022-11-27T00:45:22.630Z,39.65
2022-11-27T00:50:25.535Z,46.72
2022-11-27T00:55:28.610Z,44.83
2022-11-27T01:00:32.988Z,42.28
2022-11-27T01:05:37.576Z,43.70
2022-11-27T01:10:40.485Z,42.47
2022-11-27T01:15:45.109Z,39.40
2022-11-27T01:20:47.989Z,42.63
2022-11-27T01:25:53.331Z,44.88
2022-11-27T01:30:57.917Z,40.33
2022-11-27T01:36:03.177Z,42.92
2022-11-27T01:41:07.988Z,42.30
2022-11-27T01:46:29.481Z,39.53
2022-11-27T01:51:32.720Z,39.45
2022-11-27T01:56:36.364Z,38.63
2022-11-27T02:01:40.641Z,40.92
2022-11-27T02:06:43.651Z,40.13
2022-11-27T02:11:54.694Z,41.40
2022-11-27T02:17:03.871Z,37.95
2022-11-27T02:22:14.440Z,38.75
2022-11-27T02:27:44.570Z,38.55
2022-11-27T02:32:55.472Z,40.20
2022-11-27T02:38:00.790Z,40.35
2022-11-27T02:43:08.668Z,39.67
2022-11-27T02:48:15.505Z,39.75
2022-11-27T02:53:23.869Z,39.28
2022-11-27T02:58:30.111Z,39.47
2022-11-27T03:03:39.627Z,38.88
2022-11-27T03:08:53.215Z,39.08
2022-11-27T03:13:58.881Z,39.08
2022-11-27T03:19:17.417Z,38.45
2022-11-27T03:24:20.584Z,39.28
2022-11-27T03:29:27.330Z,38.33
2022-11-27T03:34:33.590Z,37.95
2022-11-27T03:39:36.661Z,37.35
2022-11-27T03:44:45.956Z,39.45
2022-11-27T03:50:04.867Z,38.65
2022-11-27T03:55:13.171Z,38.60
2022-11-27T04:00:16.717Z,38.78
2022-11-27T04:05:21.635Z,37.13
2022-11-27T04:10:24.482Z,40.65
2022-11-27T04:15:27.367Z,38.60
2022-11-27T04:20:31.731Z,38.53
2022-11-27T04:25:34.639Z,38.83
2022-11-27T04:30:37.629Z,41.25
2022-11-27T04:35:41.915Z,36.85
2022-11-27T04:40:45.162Z,36.35
2022-11-27T04:45:48.093Z,36.50
2022-11-27T04:50:52.341Z,36.63
2022-11-27T04:55:55.209Z,37.17
2022-11-27T05:00:58.124Z,37.85
2022-11-27T05:06:05.756Z,36.65
2022-11-27T05:11:11.496Z,36.30
2022-11-27T05:16:14.457Z,37.28
2022-11-27T05:21:18.737Z,38.08
2022-11-27T05:26:23.719Z,37.05
2022-11-27T05:31:26.873Z,38.80
2022-11-27T05:36:32.271Z,39.72
2022-11-27T05:41:35.842Z,38.78
2022-11-27T05:46:38.791Z,46.20
2022-11-27T05:51:47.788Z,42.67
2022-11-27T05:56:53.769Z,41.60
2022-11-27T06:01:56.698Z,37.88
2022-11-27T06:07:02.014Z,41.70
2022-11-27T06:12:05.248Z,49.35
2022-11-27T06:17:08.132Z,40.90
2022-11-27T06:22:12.462Z,42.90
2022-11-27T06:27:15.337Z,43.00
2022-11-27T06:32:18.261Z,40.38
2022-11-27T06:37:22.520Z,41.08
2022-11-27T06:42:25.437Z,66.13
2022-11-27T06:47:28.357Z,37.72
2022-11-27T06:52:37.179Z,51.28
2022-11-27T06:57:42.947Z,43.90
2022-11-27T07:02:45.872Z,37.58
2022-11-27T07:07:50.146Z,38.30
2022-11-27T07:12:53.012Z,38.72
2022-11-27T07:17:55.909Z,38.55
2022-11-27T07:23:00.193Z,39.65
2022-11-27T07:28:03.124Z,39.22
2022-11-27T07:33:06.046Z,38.40
2022-11-27T07:38:10.286Z,38.20
2022-11-27T07:43:13.160Z,39.45
2022-11-27T07:48:16.133Z,40.80
2022-11-27T07:53:20.382Z,39.08
2022-11-27T07:58:23.231Z,39.85
2022-11-27T08:03:26.699Z,39.83
2022-11-27T08:08:30.943Z,38.05
2022-11-27T08:13:33.812Z,39.92
2022-11-27T08:18:36.724Z,39.70
2022-11-27T08:23:41.070Z,41.10
2022-11-27T08:28:44.481Z,38.70
2022-11-27T08:33:47.501Z,39.78
2022-11-27T08:38:51.726Z,39.17
2022-11-27T08:43:55.971Z,40.50
2022-11-27T08:49:00.449Z,39.65
2022-11-27T08:54:05.044Z,39.92
2022-11-27T08:59:07.969Z,38.53
2022-11-27T09:04:10.969Z,40.45
2022-11-27T09:09:15.853Z,39.13
2022-11-27T09:14:18.742Z,38.90
2022-11-27T09:19:21.639Z,39.17
2022-11-27T09:24:26.257Z,41.70
2022-11-27T09:29:30.116Z,40.10
2022-11-27T09:34:37.675Z,41.13
2022-11-27T09:39:42.776Z,39.28
2022-11-27T09:44:48.970Z,40.15
2022-11-27T09:49:55.650Z,39.35
2022-11-27T09:55:07.624Z,40.35
2022-11-27T10:00:16.689Z,39.45
2022-11-27T10:05:23.773Z,40.38
2022-11-27T10:10:39.553Z,39.85
2022-11-27T10:15:49.704Z,41.95
2022-11-27T10:20:56.757Z,41.50
2022-11-27T10:26:37.912Z,42.88
2022-11-27T10:32:47.260Z,42.38
2022-11-27T10:38:15.668Z,42.42
2022-11-27T10:43:22.144Z,41.70
2022-11-27T10:48:25.255Z,43.80
2022-11-27T10:53:31.547Z,43.63
2022-11-27T10:58:42.718Z,41.67
2022-11-27T11:03:45.814Z,40.92
2022-11-27T11:09:03.597Z,40.50
2022-11-27T11:14:17.139Z,40.38
2022-11-27T11:19:31.109Z,40.22
2022-11-27T11:24:40.205Z,42.25
2022-11-27T11:29:50.557Z,43.50
2022-11-27T11:35:00.897Z,40.35
2022-11-27T11:40:10.789Z,41.30
2022-11-27T11:45:21.941Z,40.40
2022-11-27T11:50:33.293Z,42.67
2022-11-27T11:55:43.255Z,40.15
2022-11-27T12:01:25.954Z,41.67
2022-11-27T12:06:25.550Z,43.65
2022-11-27T12:11:37.802Z,42.08
2022-11-27T12:16:52.258Z,42.33
2022-11-27T12:22:05.924Z,41.28
2022-11-27T12:27:22.284Z,41.00
2022-11-27T12:33:14.860Z,41.10
2022-11-27T12:38:31.159Z,40.70
2022-11-27T12:43:36.674Z,42.50
2022-11-27T12:48:48.386Z,42.30
2022-11-27T12:53:55.985Z,42.55
2022-11-27T12:59:10.260Z,41.35
2022-11-27T13:04:31.287Z,41.97
2022-11-27T13:09:43.306Z,41.83
2022-11-27T13:14:52.787Z,40.97
2022-11-27T13:19:57.213Z,40.85
2022-11-27T13:25:02.708Z,43.45
2022-11-27T13:30:08.496Z,41.92
2022-11-27T13:35:22.157Z,42.00
2022-11-27T13:40:29.812Z,42.70
2022-11-27T13:45:35.441Z,42.00
2022-11-27T13:50:46.810Z,44.97
2022-11-27T13:55:55.065Z,42.03
2022-11-27T14:00:58.067Z,41.28
2022-11-27T14:06:02.368Z,40.42
2022-11-27T14:11:08.589Z,43.35
2022-11-27T14:16:26.219Z,42.45
2022-11-27T14:21:40.806Z,42.03
2022-11-27T14:26:43.675Z,42.53
2022-11-27T14:31:58.789Z,43.13
2022-11-27T14:37:03.268Z,41.63
2022-11-27T14:42:28.603Z,46.47
2022-11-27T14:47:34.132Z,41.95
2022-11-27T14:52:39.055Z,42.03
2022-11-27T14:57:42.707Z,41.88
2022-11-27T15:02:46.904Z,43.30
2022-11-27T15:07:54.250Z,41.05
2022-11-27T15:12:57.918Z,41.30
2022-11-27T15:18:03.689Z,44.20
2022-11-27T15:23:17.903Z,41.28
2022-11-27T15:28:34.832Z,40.67
2022-11-27T15:33:37.711Z,41.95
2022-11-27T15:38:43.804Z,41.85
2022-11-27T15:43:46.777Z,41.38
2022-11-27T15:48:49.791Z,44.72
2022-11-27T15:53:55.179Z,43.40
2022-11-27T15:58:58.142Z,43.58
2022-11-27T16:04:14.484Z,42.92
2022-11-27T16:09:18.740Z,42.35
2022-11-27T16:14:21.698Z,41.88
2022-11-27T16:19:24.600Z,47.50
2022-11-27T16:24:29.092Z,50.00
2022-11-27T16:29:32.026Z,45.95
2022-11-27T16:34:36.274Z,44.72
2022-11-27T16:39:41.062Z,46.30
2022-11-27T16:44:44.429Z,47.28
2022-11-27T16:49:49.696Z,50.17
2022-11-27T16:54:55.583Z,45.40
2022-11-27T16:59:59.655Z,45.53
2022-11-27T17:05:02.653Z,47.65
2022-11-27T17:10:08.324Z,49.15
2022-11-27T17:15:11.599Z,45.45
2022-11-27T17:20:14.569Z,46.22
2022-11-27T17:25:18.901Z,42.92
2022-11-27T17:30:22.031Z,44.90
2022-11-27T17:35:24.916Z,44.67
2022-11-27T17:40:34.698Z,46.53
2022-11-27T17:45:41.471Z,46.88
2022-11-27T17:50:44.493Z,49.00
2022-11-27T17:55:48.766Z,44.67
2022-11-27T18:00:52.114Z,47.15
2022-11-27T18:05:55.068Z,48.45
2022-11-27T18:11:06.400Z,48.95
2022-11-27T18:16:24.031Z,49.05
2022-11-27T18:21:28.617Z,48.80
2022-11-27T18:32:00.119Z,49.58
2022-11-27T18:37:03.282Z,50.10
2022-11-27T18:42:08.229Z,49.08
2022-11-27T18:47:11.300Z,46.40
2022-11-27T18:52:15.406Z,44.15
2022-11-27T18:57:20.077Z,48.50
2022-11-27T19:02:26.469Z,45.78
2022-11-27T19:07:29.479Z,45.35
2022-11-27T19:12:35.683Z,44.88
2022-11-27T19:17:38.676Z,44.55
2022-11-27T19:22:41.757Z,60.85
2022-11-27T19:27:46.034Z,46.85
2022-11-27T19:32:50.066Z,45.80
2022-11-27T19:37:53.619Z,48.38
2022-11-27T19:43:16.659Z,46.40
2022-11-27T19:48:23.054Z,51.33
2022-11-27T19:53:26.908Z,55.10
2022-11-27T19:58:31.232Z,52.25
2022-11-27T20:03:34.918Z,46.75
2022-11-27T20:08:39.229Z,47.45
2022-11-27T20:13:44.829Z,49.75
2022-11-27T20:18:48.301Z,49.50
2022-11-27T20:23:53.603Z,51.92
2022-11-27T20:28:59.759Z,49.88
2022-11-27T20:34:05.589Z,51.72
2022-11-27T20:39:11.651Z,50.63
2022-11-27T20:44:19.800Z,50.83
2022-11-27T20:49:22.723Z,49.92
2022-11-27T20:54:26.195Z,46.95
2022-11-27T20:59:30.443Z,46.63
2022-11-27T21:04:33.431Z,51.03
2022-11-27T21:09:36.417Z,50.42
2022-11-27T21:14:58.244Z,50.13
2022-11-27T21:20:01.717Z,49.47
2022-11-27T21:25:05.510Z,49.53
2022-11-27T21:30:10.661Z,51.25
2022-11-27T21:35:14.344Z,49.97
2022-11-27T21:40:17.632Z,48.10
2022-11-27T21:45:21.903Z,50.78
2022-11-27T21:50:24.833Z,47.95
2022-11-27T21:55:29.345Z,50.08
2022-11-27T22:00:33.640Z,58.75
2022-11-27T22:05:36.520Z,54.03
2022-11-27T22:10:40.623Z,59.92
2022-11-27T22:15:44.951Z,57.97
2022-11-27T22:20:47.897Z,57.33
2022-11-27T22:25:50.780Z,49.00
2022-11-27T22:30:55.200Z,45.00
2022-11-27T22:35:58.385Z,45.30
2022-11-27T22:41:01.571Z,41.10
2022-11-27T22:46:07.842Z,50.65
2022-11-27T22:51:11.735Z,50.72
2022-11-27T22:56:15.350Z,52.15
2022-11-27T23:01:22.328Z,52.15
2022-11-27T23:06:25.417Z,49.65
2022-11-27T23:11:29.353Z,47.95
2022-11-27T23:16:34.741Z,50.13
2022-11-27T23:21:38.718Z,44.22
2022-11-27T23:26:41.806Z,46.25
2022-11-27T23:31:46.116Z,43.75
2022-11-27T23:36:49.136Z,43.33
2022-11-27T23:41:52.005Z,42.53
2022-11-27T23:47:02.166Z,41.22
2022-11-27T23:52:05.245Z,40.75
2022-11-27T23:57:08.141Z,44.17
